Time;durP1;ratioP1;P1;durP2;ratioP2;P2;SDS_P1;SDS_P2;PMS_P1;PMS_P2;Temp;Humidity;BMP_temperature;BMP_pressure;BME280_temperature;BME280_humidity;BME280_pressure;Samples;Min_cycle;Max_cycle;Signal;HPM_P1;HPM_P2
2021/05/25 00:00:59;;;;;;;1.65;1.25;;;11.30;94.00;;;;;;5004437;28;20092;-73
2021/05/25 00:03:26;;;;;;;5.03;1.30;;;11.30;94.20;;;;;;5002724;28;20073;-72
2021/05/25 00:05:53;;;;;;;3.15;1.08;;;11.30;93.70;;;;;;5003906;28;20496;-73
2021/05/25 00:08:20;;;;;;;2.58;0.98;;;11.20;93.90;;;;;;4999028;28;20046;-72
2021/05/25 00:10:47;;;;;;;1.27;0.60;;;11.30;93.50;;;;;;5003626;28;20190;-73
2021/05/25 00:13:14;;;;;;;1.67;0.70;;;11.30;93.50;;;;;;5003195;28;20057;-72
2021/05/25 00:15:41;;;;;;;1.35;0.73;;;11.20;93.60;;;;;;5004365;28;20045;-73
2021/05/25 00:18:08;;;;;;;1.30;0.55;;;11.20;93.80;;;;;;5006397;28;20050;-73
2021/05/25 00:20:35;;;;;;;2.25;0.60;;;11.20;93.70;;;;;;5002453;28;20088;-73
2021/05/25 00:23:01;;;;;;;1.55;0.70;;;11.20;93.90;;;;;;4996019;28;20449;-73
2021/05/25 00:25:31;;;;;;;2.45;0.60;;;11.10;94.20;;;;;;5005147;28;20045;-72
2021/05/25 00:27:58;;;;;;;1.17;0.50;;;11.20;94.00;;;;;;5001401;28;20097;-72
2021/05/25 00:30:25;;;;;;;2.58;0.70;;;11.10;94.10;;;;;;5000271;28;20042;-72
2021/05/25 00:32:52;;;;;;;2.95;0.70;;;11.20;93.80;;;;;;5005263;28;20047;-72
2021/05/25 00:35:19;;;;;;;1.23;0.60;;;11.30;94.30;;;;;;5000204;28;20054;-72
2021/05/25 00:37:46;;;;;;;1.00;0.60;;;11.30;93.20;;;;;;5005345;28;20074;-73
2021/05/25 00:40:14;;;;;;;1.10;0.50;;;11.20;93.70;;;;;;5006434;28;20085;-73
2021/05/25 00:42:45;;;;;;;1.75;0.60;;;11.20;93.20;;;;;;4998851;28;20421;-72
2021/05/25 00:45:14;;;;;;;0.70;0.68;;;11.20;93.40;;;;;;5006228;28;20050;-73
2021/05/25 00:47:42;;;;;;;0.93;0.63;;;11.40;93.10;;;;;;5005050;28;20093;-72
2021/05/25 00:50:17;;;;;;;2.67;0.70;;;11.20;92.90;;;;;;5001558;28;22138;-72
2021/05/25 00:52:49;;;;;;;2.70;0.70;;;11.00;93.10;;;;;;5008536;28;20046;-73
2021/05/25 00:55:25;;;;;;;3.63;0.73;;;11.30;93.40;;;;;;5002101;28;20054;-72
2021/05/25 00:57:54;;;;;;;3.08;0.47;;;11.60;92.30;;;;;;4995863;28;20046;-72
2021/05/25 01:00:31;;;;;;;2.95;0.80;;;11.70;91.50;;;;;;5005582;28;20077;-72
2021/05/25 01:02:58;;;;;;;0.73;0.40;;;11.40;92.40;;;;;;5002844;28;20485;-73
2021/05/25 01:05:25;;;;;;;2.22;0.63;;;11.60;91.70;;;;;;5001328;28;20137;-73
2021/05/25 01:07:52;;;;;;;1.08;0.60;;;11.60;91.50;;;;;;5003615;28;20046;-72
2021/05/25 01:10:29;;;;;;;2.22;0.73;;;11.20;91.90;;;;;;5003572;28;20125;-72
2021/05/25 01:13:00;;;;;;;0.73;0.60;;;11.40;92.30;;;;;;5002087;28;20108;-72
2021/05/25 01:15:27;;;;;;;1.85;0.60;;;11.60;91.80;;;;;;5002293;28;20326;-72
2021/05/25 01:17:55;;;;;;;1.30;0.80;;;11.60;90.90;;;;;;5005551;28;20164;-72
2021/05/25 01:20:24;;;;;;;0.60;0.52;;;11.20;91.50;;;;;;5005459;28;20049;-72
2021/05/25 01:22:52;;;;;;;3.95;0.90;;;11.30;92.30;;;;;;5001654;28;20472;-70
2021/05/25 01:25:21;;;;;;;2.75;0.60;;;11.50;91.60;;;;;;5010482;28;20461;-70
2021/05/25 01:27:59;;;;;;;4.00;0.90;;;11.50;91.90;;;;;;5004668;28;20128;-70
2021/05/25 01:30:29;;;;;;;2.80;0.80;;;11.70;91.10;;;;;;5005352;28;20117;-69
2021/05/25 01:32:57;;;;;;;2.05;1.02;;;11.50;91.10;;;;;;5009256;28;20045;-70
2021/05/25 01:35:25;;;;;;;3.47;0.70;;;11.40;91.30;;;;;;5021976;28;20104;-70
2021/05/25 01:37:54;;;;;;;1.80;0.68;;;11.20;91.10;;;;;;5012452;28;20045;-70
2021/05/25 01:40:22;;;;;;;4.63;0.88;;;11.20;91.00;;;;;;5011592;28;20073;-70
2021/05/25 01:42:49;;;;;;;3.75;0.80;;;11.30;90.60;;;;;;5009170;28;20054;-70
2021/05/25 01:45:19;;;;;;;3.45;0.85;;;11.30;89.80;;;;;;5010778;28;20058;-70
2021/05/25 01:47:46;;;;;;;2.00;0.90;;;11.30;89.30;;;;;;5043723;28;20054;-72
2021/05/25 01:50:15;;;;;;;2.78;1.08;;;11.20;88.00;;;;;;5006489;28;20509;-72
2021/05/25 01:52:48;;;;;;;4.65;0.75;;;11.30;88.30;;;;;;5017371;28;20112;-73
2021/05/25 01:55:28;;;;;;;2.88;0.60;;;11.10;87.50;;;;;;5007807;28;20079;-73
2021/05/25 01:57:58;;;;;;;3.22;0.80;;;11.20;87.40;;;;;;5006551;28;20082;-72
2021/05/25 02:00:26;;;;;;;2.58;0.73;;;11.20;87.10;;;;;;5038681;28;20084;-73
2021/05/25 02:02:53;;;;;;;1.38;0.40;;;11.10;86.90;;;;;;5009076;28;20078;-73
2021/05/25 02:05:19;;;;;;;2.28;0.55;;;11.10;86.00;;;;;;5007450;28;20130;-72
2021/05/25 02:07:52;;;;;;;3.28;0.70;;;11.20;86.40;;;;;;5005837;28;20426;-72
2021/05/25 02:10:32;;;;;;;1.77;0.85;;;11.10;86.40;;;;;;5005404;28;20049;-72
2021/05/25 02:13:02;;;;;;;2.53;1.00;;;11.10;87.60;;;;;;5007090;28;20050;-72
2021/05/25 02:15:30;;;;;;;3.33;0.80;;;11.10;85.80;;;;;;5015280;28;20056;-72
2021/05/25 02:18:03;;;;;;;2.10;0.80;;;11.10;85.90;;;;;;5011082;28;20463;-70
2021/05/25 02:20:30;;;;;;;3.83;0.90;;;11.00;86.50;;;;;;5006158;28;20099;-70
2021/05/25 02:22:57;;;;;;;1.10;0.45;;;11.10;86.00;;;;;;5005481;28;20050;-69
2021/05/25 02:25:24;;;;;;;1.67;0.45;;;11.00;85.60;;;;;;5011179;28;20143;-69
2021/05/25 02:27:51;;;;;;;2.78;0.47;;;11.00;85.70;;;;;;5007159;28;20180;-70
2021/05/25 02:30:18;;;;;;;1.75;0.55;;;11.10;86.10;;;;;;5009668;28;20148;-70
2021/05/25 02:32:45;;;;;;;3.08;0.73;;;11.10;84.40;;;;;;5013523;28;20077;-70
2021/05/25 02:35:12;;;;;;;1.08;0.63;;;11.00;85.80;;;;;;5002477;28;20053;-70
2021/05/25 02:37:39;;;;;;;3.10;0.60;;;11.10;85.60;;;;;;5004818;28;20433;-70
2021/05/25 02:40:08;;;;;;;2.70;0.50;;;11.20;84.70;;;;;;5004021;28;20471;-70
2021/05/25 02:42:35;;;;;;;1.75;0.60;;;11.20;84.40;;;;;;5014037;28;20139;-70
2021/05/25 02:45:04;;;;;;;1.08;0.60;;;11.10;84.60;;;;;;5004953;28;20053;-70
2021/05/25 02:47:31;;;;;;;0.60;0.38;;;11.10;85.10;;;;;;5003903;28;20042;-70
2021/05/25 02:50:06;;;;;;;4.88;0.80;;;11.00;85.80;;;;;;5004135;28;20042;-69
2021/05/25 02:52:40;;;;;;;1.73;0.60;;;11.00;85.90;;;;;;5013170;28;20081;-70
2021/05/25 02:55:10;;;;;;;2.63;0.50;;;11.20;85.20;;;;;;5014897;28;20092;-69
2021/05/25 02:57:38;;;;;;;2.78;0.63;;;10.90;84.90;;;;;;5007994;28;20477;-69
2021/05/25 03:00:07;;;;;;;2.60;0.93;;;10.90;86.10;;;;;;5011508;28;20100;-69
2021/05/25 03:02:34;;;;;;;3.95;0.70;;;11.10;85.40;;;;;;5012282;28;20049;-70
2021/05/25 03:05:03;;;;;;;3.65;0.70;;;11.00;84.90;;;;;;5000399;28;20046;-70
2021/05/25 03:07:31;;;;;;;1.00;0.70;;;11.00;85.50;;;;;;5015757;28;20058;-70
2021/05/25 03:09:57;;;;;;;3.97;1.15;;;11.00;84.50;;;;;;5011709;28;20042;-70
2021/05/25 03:12:25;;;;;;;2.05;0.70;;;11.10;84.50;;;;;;5011734;28;20045;-70
2021/05/25 03:14:52;;;;;;;4.13;0.82;;;11.10;83.70;;;;;;5012117;28;20093;-70
2021/05/25 03:17:22;;;;;;;4.60;0.95;;;11.00;83.90;;;;;;5011442;28;20128;-70
2021/05/25 03:19:52;;;;;;;4.35;1.33;;;11.00;84.00;;;;;;5011698;28;20129;-70
2021/05/25 03:22:19;;;;;;;3.10;1.10;;;11.00;83.00;;;;;;5007101;28;20061;-70
2021/05/25 03:24:47;;;;;;;6.03;1.00;;;11.00;82.80;;;;;;5010328;28;20123;-73
2021/05/25 03:27:13;;;;;;;4.25;0.88;;;11.00;82.80;;;;;;5011508;28;20045;-72
2021/05/25 03:29:40;;;;;;;4.07;1.10;;;11.00;82.40;;;;;;5010033;28;20096;-72
2021/05/25 03:32:07;;;;;;;3.53;1.08;;;11.00;82.20;;;;;;5012015;28;20473;-72
2021/05/25 03:34:34;;;;;;;3.67;1.00;;;11.10;82.40;;;;;;5010976;28;20050;-72
2021/05/25 03:37:01;;;;;;;3.58;1.58;;;10.90;82.10;;;;;;5014351;28;20069;-73
2021/05/25 03:39:28;;;;;;;7.50;1.27;;;11.00;81.50;;;;;;5009778;28;20089;-72
2021/05/25 03:41:55;;;;;;;5.10;1.65;;;10.90;81.60;;;;;;5017848;28;20081;-72
2021/05/25 03:44:21;;;;;;;5.72;1.15;;;11.00;81.50;;;;;;5008105;28;20120;-72
2021/05/25 03:46:48;;;;;;;4.35;1.25;;;10.90;81.30;;;;;;5009266;28;20461;-72
2021/05/25 03:49:15;;;;;;;3.40;0.90;;;10.90;81.90;;;;;;5011253;28;20466;-72
2021/05/25 03:51:42;;;;;;;4.05;1.10;;;11.00;81.40;;;;;;5013190;28;20054;-72
2021/05/25 03:54:13;;;;;;;4.38;0.98;;;10.90;81.40;;;;;;5007020;28;20092;-73
2021/05/25 03:56:56;;;;;;;2.45;0.90;;;11.00;80.80;;;;;;5019133;28;20053;-72
2021/05/25 03:59:23;;;;;;;3.35;0.70;;;11.00;79.80;;;;;;5006290;28;20046;-73
2021/05/25 04:01:52;;;;;;;1.80;0.57;;;11.10;77.60;;;;;;5009844;28;20046;-72
2021/05/25 04:04:18;;;;;;;1.98;0.82;;;11.10;77.30;;;;;;5011231;28;20050;-72
2021/05/25 04:06:46;;;;;;;3.83;0.75;;;11.00;76.80;;;;;;5018374;28;20128;-73
2021/05/25 04:09:12;;;;;;;3.72;0.75;;;11.00;76.20;;;;;;5009983;28;20078;-72
2021/05/25 04:11:39;;;;;;;2.60;0.95;;;11.10;76.50;;;;;;5021542;28;20469;-72
2021/05/25 04:14:06;;;;;;;3.05;0.57;;;11.10;76.30;;;;;;4998739;28;20074;-73
2021/05/25 04:16:33;;;;;;;4.25;0.68;;;11.10;76.30;;;;;;5011045;28;20046;-72
2021/05/25 04:19:00;;;;;;;2.17;0.85;;;11.10;76.40;;;;;;5012932;28;20042;-72
2021/05/25 04:21:27;;;;;;;5.32;0.70;;;11.10;76.00;;;;;;5000107;28;20474;-72
2021/05/25 04:23:54;;;;;;;1.55;0.55;;;11.00;76.00;;;;;;5010699;28;20374;-72
2021/05/25 04:26:21;;;;;;;4.75;0.70;;;11.00;76.60;;;;;;5011329;28;20489;-72
2021/05/25 04:28:48;;;;;;;6.75;1.02;;;11.10;76.60;;;;;;5008820;28;20100;-72
2021/05/25 04:31:15;;;;;;;7.68;0.70;;;11.00;76.00;;;;;;5016280;28;20053;-72
2021/05/25 04:33:41;;;;;;;1.13;0.73;;;11.20;76.00;;;;;;5014166;28;20130;-72
2021/05/25 04:36:08;;;;;;;5.28;0.73;;;11.20;75.40;;;;;;5013422;28;20057;-72
2021/05/25 04:38:35;;;;;;;2.83;1.25;;;11.20;76.30;;;;;;5013382;28;20050;-72
2021/05/25 04:41:02;;;;;;;2.58;0.68;;;11.10;75.80;;;;;;5028900;28;20074;-72
2021/05/25 04:43:29;;;;;;;2.97;0.80;;;11.00;76.20;;;;;;5010302;28;20077;-72
2021/05/25 04:45:56;;;;;;;3.20;0.70;;;11.20;76.30;;;;;;5011146;28;20142;-73
2021/05/25 04:48:22;;;;;;;3.67;0.73;;;11.20;76.30;;;;;;5005370;28;20437;-72
2021/05/25 04:50:49;;;;;;;1.60;0.82;;;11.20;75.00;;;;;;5004866;28;20077;-72
2021/05/25 04:53:16;;;;;;;5.95;0.60;;;11.20;74.90;;;;;;5005964;28;20621;-72
2021/05/25 04:55:43;;;;;;;2.00;0.68;;;11.20;74.20;;;;;;5011926;28;20050;-72
2021/05/25 04:58:10;;;;;;;3.85;0.93;;;11.20;74.20;;;;;;5008005;28;20046;-72
2021/05/25 05:00:37;;;;;;;0.50;0.40;;;11.10;73.50;;;;;;5022274;28;20069;-72
2021/05/25 05:03:04;;;;;;;1.98;0.68;;;11.10;74.20;;;;;;5009949;28;20061;-72
2021/05/25 05:05:31;;;;;;;0.70;0.70;;;11.20;73.70;;;;;;5008541;28;20115;-72
2021/05/25 05:07:58;;;;;;;2.45;0.60;;;11.20;73.80;;;;;;5003900;28;20448;-72
2021/05/25 05:10:25;;;;;;;3.38;0.63;;;11.20;74.30;;;;;;5009923;28;20050;-72
2021/05/25 05:12:52;;;;;;;2.22;0.80;;;11.10;74.70;;;;;;5008284;28;20192;-72
2021/05/25 05:15:19;;;;;;;4.00;0.70;;;11.10;75.30;;;;;;5008876;28;20412;-72
2021/05/25 05:17:47;;;;;;;2.63;0.55;;;11.10;75.70;;;;;;5014557;28;20053;-72
2021/05/25 05:20:15;;;;;;;1.10;0.60;;;10.90;76.80;;;;;;5007996;28;20076;-72
2021/05/25 05:22:41;;;;;;;1.88;0.60;;;11.00;77.00;;;;;;5010447;28;20105;-72
2021/05/25 05:25:10;;;;;;;2.47;0.70;;;11.10;76.50;;;;;;5023873;28;20053;-72
2021/05/25 05:27:38;;;;;;;2.53;0.60;;;11.10;77.30;;;;;;5010467;28;20080;-72
2021/05/25 05:30:06;;;;;;;1.35;0.68;;;11.10;77.60;;;;;;5012712;28;20045;-72
2021/05/25 05:32:33;;;;;;;5.15;0.90;;;11.10;77.30;;;;;;5009889;28;20119;-72
2021/05/25 05:35:01;;;;;;;4.10;0.75;;;11.20;77.90;;;;;;5011474;28;20108;-72
2021/05/25 05:37:28;;;;;;;2.42;0.88;;;11.10;76.90;;;;;;5007779;28;20173;-72
2021/05/25 05:39:55;;;;;;;2.40;0.80;;;11.10;77.20;;;;;;5005861;28;20116;-72
2021/05/25 05:42:21;;;;;;;3.15;0.75;;;10.90;78.90;;;;;;5007613;28;20116;-72
2021/05/25 05:44:48;;;;;;;5.72;0.93;;;10.90;79.40;;;;;;5016416;28;20088;-69
2021/05/25 05:47:15;;;;;;;1.20;0.50;;;11.00;79.80;;;;;;5006395;28;20042;-70
2021/05/25 05:49:42;;;;;;;4.15;0.88;;;11.00;78.90;;;;;;5009436;28;20053;-70
2021/05/25 05:52:09;;;;;;;1.90;0.45;;;11.00;78.50;;;;;;5011634;28;20093;-69
2021/05/25 05:54:36;;;;;;;1.10;0.40;;;11.10;77.20;;;;;;5006043;28;20120;-70
2021/05/25 05:57:03;;;;;;;1.83;0.68;;;11.10;76.90;;;;;;5010873;28;20041;-70
2021/05/25 05:59:30;;;;;;;3.25;0.70;;;11.10;76.90;;;;;;5006008;28;20073;-73
2021/05/25 06:01:56;;;;;;;3.25;0.75;;;11.20;77.40;;;;;;5008953;28;20465;-72
2021/05/25 06:04:23;;;;;;;3.67;0.82;;;11.20;77.20;;;;;;5016558;28;20050;-73
2021/05/25 06:06:50;;;;;;;0.95;0.52;;;11.20;76.80;;;;;;5004048;28;20168;-73
2021/05/25 06:09:17;;;;;;;2.13;0.80;;;11.20;76.10;;;;;;5007554;28;20088;-73
2021/05/25 06:11:51;;;;;;;2.28;0.70;;;11.20;76.60;;;;;;4994792;28;20516;-74
2021/05/25 06:14:20;;;;;;;2.95;0.80;;;11.30;76.50;;;;;;5003775;28;20054;-72
2021/05/25 06:16:47;;;;;;;1.70;0.57;;;11.30;76.00;;;;;;5012117;28;20057;-72
2021/05/25 06:19:13;;;;;;;0.75;0.50;;;11.40;76.40;;;;;;5012714;28;20104;-72
2021/05/25 06:21:44;;;;;;;2.33;0.60;;;11.30;76.10;;;;;;5012353;28;20137;-74
2021/05/25 06:24:13;;;;;;;1.75;0.50;;;11.30;77.10;;;;;;5008673;28;20050;-73
2021/05/25 06:26:40;;;;;;;3.58;0.77;;;11.00;77.60;;;;;;5014856;28;20053;-73
2021/05/25 06:29:07;;;;;;;2.00;0.70;;;11.00;79.00;;;;;;5011518;28;20103;-73
2021/05/25 06:31:34;;;;;;;1.65;0.85;;;11.20;79.40;;;;;;5014452;28;20135;-72
2021/05/25 06:34:01;;;;;;;4.50;0.70;;;11.30;78.80;;;;;;5005845;28;20069;-72
2021/05/25 06:36:28;;;;;;;2.75;0.50;;;11.30;78.50;;;;;;5014625;28;20042;-72
2021/05/25 06:38:54;;;;;;;1.30;0.47;;;11.30;77.80;;;;;;5016862;28;20112;-71
2021/05/25 06:41:21;;;;;;;3.40;0.80;;;11.20;77.80;;;;;;5015597;28;20100;-71
2021/05/25 06:43:48;;;;;;;3.10;0.65;;;11.20;77.70;;;;;;5012952;28;20054;-72
2021/05/25 06:46:15;;;;;;;1.33;0.63;;;11.20;77.30;;;;;;5017974;28;20430;-71
2021/05/25 06:48:42;;;;;;;1.55;0.90;;;11.20;77.20;;;;;;5012769;28;20085;-72
2021/05/25 06:51:09;;;;;;;2.40;0.50;;;11.20;77.30;;;;;;5013409;28;20042;-72
2021/05/25 06:53:36;;;;;;;1.80;0.68;;;11.20;77.30;;;;;;5013372;28;20551;-72
2021/05/25 06:56:04;;;;;;;1.33;0.40;;;11.30;77.50;;;;;;5012033;28;20050;-71
2021/05/25 06:58:32;;;;;;;1.13;0.63;;;11.20;77.60;;;;;;5013897;28;20456;-71
2021/05/25 07:00:59;;;;;;;0.63;0.30;;;11.20;78.40;;;;;;5012777;28;20046;-71
2021/05/25 07:03:26;;;;;;;2.17;0.50;;;11.00;79.00;;;;;;5014335;28;20073;-71
2021/05/25 07:05:53;;;;;;;3.85;0.52;;;11.00;79.70;;;;;;5012805;28;20490;-73
2021/05/25 07:08:19;;;;;;;1.23;0.60;;;11.10;80.40;;;;;;5015648;28;20046;-72
2021/05/25 07:10:46;;;;;;;2.55;0.70;;;11.00;80.80;;;;;;5011303;28;20103;-73
2021/05/25 07:13:13;;;;;;;2.78;0.50;;;10.90;82.10;;;;;;5016150;28;20566;-74
2021/05/25 07:15:41;;;;;;;0.88;0.45;;;10.80;82.00;;;;;;5009913;28;20096;-73
2021/05/25 07:18:08;;;;;;;0.55;0.40;;;10.60;85.60;;;;;;5014555;28;20416;-70
2021/05/25 07:20:35;;;;;;;1.80;0.57;;;10.70;85.90;;;;;;5011401;28;20073;-68
2021/05/25 07:23:02;;;;;;;5.18;0.80;;;10.70;89.00;;;;;;5011249;28;20453;-69
2021/05/25 07:25:29;;;;;;;1.98;0.70;;;10.90;89.40;;;;;;5010878;28;20061;-72
2021/05/25 07:27:57;;;;;;;3.03;0.60;;;10.70;88.90;;;;;;5014997;28;20157;-70
2021/05/25 07:30:24;;;;;;;1.30;0.52;;;10.70;89.10;;;;;;5017707;28;20442;-70
2021/05/25 07:32:52;;;;;;;2.40;0.60;;;10.80;88.70;;;;;;5013960;28;20054;-70
2021/05/25 07:35:19;;;;;;;0.93;0.60;;;11.00;90.00;;;;;;5003297;28;20070;-70
2021/05/25 07:37:46;;;;;;;0.40;0.40;;;11.10;89.50;;;;;;5008310;28;20419;-68
2021/05/25 07:40:17;;;;;;;1.67;0.57;;;11.00;90.30;;;;;;5006763;28;20104;-70
2021/05/25 07:42:45;;;;;;;2.97;0.60;;;10.80;90.60;;;;;;5010592;28;20547;-69
2021/05/25 07:45:14;;;;;;;2.15;0.35;;;10.70;91.40;;;;;;5011223;28;20054;-70
2021/05/25 07:47:42;;;;;;;0.85;0.40;;;10.80;90.10;;;;;;5008127;28;20440;-70
2021/05/25 07:50:13;;;;;;;2.75;0.40;;;10.80;90.00;;;;;;5042751;28;20054;-70
2021/05/25 07:52:46;;;;;;;1.30;0.77;;;10.90;89.00;;;;;;5011037;28;20049;-70
2021/05/25 07:55:16;;;;;;;0.40;0.40;;;11.00;89.80;;;;;;5008598;28;20485;-70
2021/05/25 07:57:43;;;;;;;1.45;0.52;;;11.10;87.60;;;;;;5010655;28;20046;-69
2021/05/25 08:00:12;;;;;;;1.27;0.70;;;11.20;88.40;;;;;;5010986;28;20046;-69
2021/05/25 08:02:40;;;;;;;3.10;0.77;;;11.20;86.60;;;;;;5010597;28;20057;-70
2021/05/25 08:05:08;;;;;;;1.23;0.60;;;11.30;85.10;;;;;;5006770;28;20116;-70
2021/05/25 08:07:35;;;;;;;1.23;0.65;;;11.20;86.00;;;;;;5010308;28;20456;-70
2021/05/25 08:10:05;;;;;;;1.48;0.30;;;11.10;86.00;;;;;;5007908;28;20046;-69
2021/05/25 08:12:32;;;;;;;0.35;0.30;;;11.00;86.70;;;;;;5010035;28;20115;-69
2021/05/25 08:15:02;;;;;;;3.25;0.55;;;11.10;86.20;;;;;;5011840;28;20148;-71
2021/05/25 08:20:17;;;;;;;3.60;0.52;;;11.10;87.30;;;;;;5008118;28;20105;-68
2021/05/25 08:23:10;;;;;;;2.00;0.50;;;11.20;87.90;;;;;;5009728;28;20053;-72
2021/05/25 08:25:40;;;;;;;2.53;0.47;;;11.10;87.30;;;;;;5004283;28;20058;-70
2021/05/25 08:28:09;;;;;;;1.53;0.40;;;11.10;88.60;;;;;;5007272;28;20100;-70
2021/05/25 08:30:40;;;;;;;1.17;0.50;;;11.10;88.90;;;;;;5009818;28;20108;-70
2021/05/25 08:33:09;;;;;;;0.52;0.50;;;11.10;89.50;;;;;;5008713;28;20042;-70
2021/05/25 08:35:39;;;;;;;0.57;0.47;;;11.10;90.00;;;;;;5018464;28;20481;-70
2021/05/25 08:38:08;;;;;;;3.17;0.68;;;10.90;91.00;;;;;;4998477;28;20058;-70
2021/05/25 08:40:36;;;;;;;0.63;0.40;;;10.80;91.20;;;;;;5003243;28;20535;-71
2021/05/25 08:43:04;;;;;;;0.40;0.40;;;10.80;91.30;;;;;;5010048;28;20585;-70
2021/05/25 08:45:31;;;;;;;1.55;0.75;;;11.00;91.70;;;;;;5016115;28;20401;-72
2021/05/25 08:47:58;;;;;;;1.63;0.55;;;11.10;91.50;;;;;;5008699;28;20037;-72
2021/05/25 08:50:47;;;;;;;0.80;0.50;;;11.10;90.60;;;;;;5003982;28;20065;-71
2021/05/25 08:53:14;;;;;;;1.23;0.60;;;11.00;90.60;;;;;;5013811;28;20081;-72
2021/05/25 08:55:45;;;;;;;1.02;0.47;;;11.20;90.50;;;;;;5008760;28;20104;-71
2021/05/25 08:58:12;;;;;;;2.65;0.50;;;11.30;90.20;;;;;;5011367;28;20050;-71
2021/05/25 09:00:39;;;;;;;1.90;0.50;;;11.30;89.80;;;;;;5020439;28;20073;-72
2021/05/25 09:03:06;;;;;;;0.80;0.40;;;11.40;88.50;;;;;;5003520;28;20073;-71
2021/05/25 09:05:34;;;;;;;0.55;0.50;;;11.70;87.00;;;;;;5019791;28;20058;-71
2021/05/25 09:08:01;;;;;;;1.05;0.35;;;11.70;86.00;;;;;;5010931;28;20050;-71
2021/05/25 09:10:33;;;;;;;0.93;0.60;;;12.00;86.00;;;;;;5008654;28;20054;-71
2021/05/25 09:13:01;;;;;;;0.65;0.50;;;12.00;84.00;;;;;;5012964;28;20045;-73
2021/05/25 09:15:37;;;;;;;1.50;0.50;;;11.70;84.20;;;;;;5010538;28;20100;-72
2021/05/25 09:18:15;;;;;;;0.98;0.50;;;11.80;84.40;;;;;;5005694;28;20050;-72
2021/05/25 09:20:47;;;;;;;0.85;0.50;;;12.00;84.20;;;;;;5004509;28;20057;-72
2021/05/25 09:23:16;;;;;;;0.68;0.50;;;11.80;84.30;;;;;;5009463;28;20081;-72
2021/05/25 09:25:53;;;;;;;4.13;0.50;;;11.90;84.40;;;;;;4998322;28;20165;-72
2021/05/25 09:28:21;;;;;;;2.10;0.60;;;11.70;82.70;;;;;;5025029;28;20429;-71
2021/05/25 09:30:49;;;;;;;2.60;0.73;;;11.80;84.40;;;;;;5002934;28;20076;-71
2021/05/25 09:33:17;;;;;;;1.38;0.68;;;11.70;85.00;;;;;;5003284;28;20076;-71
2021/05/25 09:35:47;;;;;;;1.73;0.85;;;11.80;84.20;;;;;;5024909;28;20092;-70
2021/05/25 09:38:26;;;;;;;2.70;0.77;;;11.90;85.50;;;;;;5003792;28;20161;-72
2021/05/25 09:40:58;;;;;;;0.98;0.60;;;11.60;86.90;;;;;;5002304;28;20520;-71
2021/05/25 09:43:29;;;;;;;4.80;0.70;;;11.60;88.30;;;;;;5002406;28;20061;-71
2021/05/25 09:46:02;;;;;;;3.30;0.93;;;11.80;88.30;;;;;;5007277;28;20132;-71
2021/05/25 09:48:52;;;;;;;2.67;0.93;;;12.00;87.80;;;;;;5006992;28;20650;-70
2021/05/25 09:51:28;;;;;;;1.00;0.60;;;11.80;86.80;;;;;;5008419;28;20077;-69
2021/05/25 09:53:58;;;;;;;3.53;0.82;;;12.00;87.40;;;;;;5006963;28;20054;-69
2021/05/25 09:56:30;;;;;;;1.88;0.75;;;12.20;86.80;;;;;;5004377;28;20507;-70
2021/05/25 09:58:59;;;;;;;1.50;0.70;;;12.20;86.20;;;;;;5005356;28;21292;-70
2021/05/25 10:01:33;;;;;;;3.13;0.88;;;12.20;84.10;;;;;;5006964;28;20397;-70
2021/05/25 10:04:10;;;;;;;3.00;0.50;;;12.10;82.50;;;;;;5007175;28;20050;-70
2021/05/25 10:06:43;;;;;;;3.88;0.73;;;12.10;82.60;;;;;;5006849;28;20145;-70
2021/05/25 10:09:11;;;;;;;3.35;0.73;;;12.10;81.50;;;;;;5003763;28;20124;-69
2021/05/25 10:11:43;;;;;;;1.33;0.60;;;12.00;81.30;;;;;;5004934;28;20053;-72
2021/05/25 10:14:11;;;;;;;2.67;0.63;;;12.00;79.90;;;;;;5004307;28;20053;-70
2021/05/25 10:16:42;;;;;;;2.45;0.70;;;12.30;78.10;;;;;;5006435;28;20156;-70
2021/05/25 10:21:42;;;;;;;2.08;0.75;;;12.40;76.20;;;;;;5008385;28;20108;-70
2021/05/25 10:24:09;;;;;;;1.70;0.80;;;12.50;75.40;;;;;;5003270;28;20131;-70
2021/05/25 10:26:37;;;;;;;1.88;0.63;;;12.50;75.20;;;;;;5006371;28;20477;-70
2021/05/25 10:29:05;;;;;;;1.60;0.98;;;12.50;74.80;;;;;;5006451;28;20530;-71
2021/05/25 10:31:37;;;;;;;4.50;1.02;;;12.60;75.10;;;;;;5006006;28;20078;-70
2021/05/25 10:34:23;;;;;;;1.70;0.68;;;12.90;73.00;;;;;;5007271;28;20138;-70
2021/05/25 10:37:02;;;;;;;2.30;0.80;;;12.90;70.20;;;;;;5006296;28;20457;-70
2021/05/25 10:39:32;;;;;;;1.38;0.80;;;12.60;70.40;;;;;;5005686;28;20127;-71
2021/05/25 10:42:18;;;;;;;2.50;0.65;;;12.90;70.50;;;;;;5006242;28;20053;-71
2021/05/25 10:44:49;;;;;;;0.85;0.73;;;13.00;69.40;;;;;;5024233;28;20474;-71
2021/05/25 10:47:18;;;;;;;2.40;0.93;;;12.90;71.10;;;;;;5006453;28;20104;-72
2021/05/25 10:49:54;;;;;;;5.75;0.88;;;12.90;70.70;;;;;;5026842;28;20054;-70
2021/05/25 10:52:22;;;;;;;3.10;1.08;;;12.90;72.10;;;;;;5027357;28;20132;-70
2021/05/25 10:54:52;;;;;;;1.80;0.60;;;13.00;71.40;;;;;;5005652;28;20537;-70
2021/05/25 10:57:47;;;;;;;5.70;1.00;;;13.10;70.30;;;;;;5004802;28;20448;-70
2021/05/25 11:00:15;;;;;;;1.67;0.77;;;13.10;70.40;;;;;;5003578;28;21392;-70
2021/05/25 11:03:09;;;;;;;2.22;0.90;;;13.20;70.10;;;;;;5006316;28;20085;-71
2021/05/25 11:05:39;;;;;;;0.90;0.50;;;13.00;70.30;;;;;;5005445;28;20501;-71
2021/05/25 11:08:12;;;;;;;4.95;0.70;;;13.30;69.70;;;;;;5005820;28;20139;-71
2021/05/25 11:10:40;;;;;;;3.67;0.50;;;13.50;67.80;;;;;;5005885;28;20141;-71
2021/05/25 11:13:21;;;;;;;1.90;0.70;;;13.10;68.20;;;;;;5004033;28;20054;-70
2021/05/25 11:16:10;;;;;;;;;;;13.30;67.80;;;;;;5005579;28;20831;-71
2021/05/25 11:24:36;;;;;;;2.97;0.50;;;13.50;67.60;;;;;;5003375;28;20176;-71
2021/05/25 11:27:13;;;;;;;4.13;0.60;;;13.50;67.40;;;;;;5026740;28;20582;-70
2021/05/25 11:29:57;;;;;;;1.80;0.50;;;13.20;68.20;;;;;;5005338;28;20073;-71
2021/05/25 11:32:28;;;;;;;1.98;0.77;;;13.00;70.60;;;;;;5003944;28;20129;-71
2021/05/25 11:34:57;;;;;;;2.42;0.73;;;13.10;71.10;;;;;;5003952;28;20056;-71
2021/05/25 11:37:25;;;;;;;1.05;0.60;;;13.30;70.80;;;;;;5026517;28;20145;-71
2021/05/25 11:39:53;;;;;;;2.88;0.50;;;13.20;70.50;;;;;;5031438;28;20123;-71
2021/05/25 11:42:31;;;;;;;1.90;0.70;;;13.20;69.60;;;;;;5004988;28;20140;-72
2021/05/25 11:45:01;;;;;;;2.83;0.80;;;13.20;69.50;;;;;;5004775;28;20096;-71
2021/05/25 11:47:28;;;;;;;4.35;1.08;;;13.10;69.80;;;;;;4999586;28;20077;-72
2021/05/25 11:49:55;;;;;;;2.13;0.73;;;13.10;70.50;;;;;;5005449;28;20054;-70
2021/05/25 11:52:33;;;;;;;4.60;0.93;;;13.40;69.70;;;;;;5003826;28;20081;-71
2021/05/25 11:55:05;;;;;;;5.93;1.05;;;14.10;67.80;;;;;;5001818;28;20093;-71
2021/05/25 11:57:32;;;;;;;5.88;0.95;;;14.40;64.80;;;;;;5003417;28;20053;-71
2021/05/25 12:00:13;;;;;;;4.80;0.93;;;14.40;65.20;;;;;;5003902;28;20068;-71
2021/05/25 12:02:40;;;;;;;;;;;14.50;63.50;;;;;;5006255;28;20156;-71
2021/05/25 12:05:08;;;;;;;3.58;0.95;;;14.70;64.30;;;;;;5003585;28;20638;-71
2021/05/25 12:07:36;;;;;;;1.95;1.00;;;15.00;61.90;;;;;;5004639;28;20054;-71
2021/05/25 12:10:12;;;;;;;5.28;0.85;;;15.40;61.80;;;;;;5003669;28;20778;-71
2021/05/25 12:12:42;;;;;;;2.60;0.88;;;16.10;59.60;;;;;;5003214;28;20115;-71
2021/05/25 12:15:14;;;;;;;2.47;1.00;;;15.90;57.70;;;;;;5029179;28;20736;-70
2021/05/25 12:17:44;;;;;;;3.70;1.00;;;18.20;54.50;;;;;;5021223;28;20061;-70
2021/05/25 12:20:17;;;;;;;4.18;1.40;;;17.90;52.50;;;;;;5003571;28;20141;-70
2021/05/25 12:22:45;;;;;;;7.10;1.02;;;17.20;54.70;;;;;;5004715;28;20081;-70
2021/05/25 12:25:26;;;;;;;2.15;0.80;;;17.20;55.30;;;;;;5003120;28;20139;-69
2021/05/25 12:28:01;;;;;;;2.95;1.33;;;16.40;55.40;;;;;;5002045;28;20066;-70
2021/05/25 12:30:28;;;;;;;6.10;1.58;;;16.10;57.00;;;;;;5003622;28;20104;-70
2021/05/25 12:32:55;;;;;;;2.10;0.95;;;17.40;52.40;;;;;;4999970;28;20077;-70
2021/05/25 12:35:28;;;;;;;2.80;1.10;;;16.30;55.10;;;;;;4999377;28;20077;-78
2021/05/25 12:38:06;;;;;;;4.57;1.63;;;15.80;56.50;;;;;;5002211;28;20081;-82
2021/05/25 12:40:34;;;;;;;2.47;1.15;;;17.30;57.00;;;;;;5000246;28;20058;-74
2021/05/25 12:43:15;;;;;;;3.90;1.70;;;15.70;55.60;;;;;;5021399;28;20135;-74
2021/05/25 12:45:45;;;;;;;5.97;1.05;;;16.00;55.70;;;;;;5001189;28;20057;-76
2021/05/25 12:48:13;;;;;;;5.05;1.40;;;15.60;55.60;;;;;;4998534;28;20130;-70
2021/05/25 12:50:41;;;;;;;5.60;0.90;;;15.40;55.40;;;;;;4998637;28;20516;-74
2021/05/25 12:53:19;;;;;;;5.03;1.33;;;15.60;56.00;;;;;;4998382;28;20497;-77
2021/05/25 12:55:52;;;;;;;5.47;1.17;;;16.40;55.30;;;;;;5026192;28;20081;-73
2021/05/25 12:58:37;;;;;;;5.90;1.20;;;17.50;53.50;;;;;;4999162;28;22264;-73
2021/05/25 13:01:25;;;;;;;2.45;1.02;;;16.90;53.10;;;;;;4998759;28;20144;-73
2021/05/25 13:04:16;;;;;;;5.82;1.25;;;17.00;53.00;;;;;;4997979;28;20076;-71
2021/05/25 13:06:57;;;;;;;10.70;1.00;;;16.60;53.30;;;;;;5001801;28;20049;-70
2021/05/25 13:09:40;;;;;;;6.03;1.08;;;17.10;51.00;;;;;;5002874;28;20050;-71
2021/05/25 13:12:11;;;;;;;2.00;0.80;;;17.90;50.60;;;;;;5002717;28;20054;-69